createdAt,value
2023-11-02T00:02:28.933Z,98787.28
2023-11-02T00:04:58.002Z,98783.97
2023-11-02T00:07:29.497Z,98788.66
2023-11-02T00:09:58.961Z,98788.03
2023-11-02T00:12:31.767Z,98795.53
2023-11-02T00:15:02.557Z,98786.09
2023-11-02T00:17:57.578Z,98784.63
2023-11-02T00:20:32.310Z,98775.19
2023-11-02T00:23:00.046Z,98771.25
2023-11-02T00:25:52.303Z,98768.97
2023-11-02T00:28:26.421Z,98763.19
2023-11-02T00:30:54.397Z,98769.50
2023-11-02T00:33:23.193Z,98768.22
2023-11-02T00:35:53.062Z,98765.91
2023-11-02T00:38:22.488Z,98752.78
2023-11-02T00:40:50.600Z,98744.38
2023-11-02T00:43:20.615Z,98744.56
2023-11-02T00:45:50.376Z,98740.22
2023-11-02T00:48:22.182Z,98723.66
2023-11-02T00:51:06.646Z,98724.66
2023-11-02T00:53:34.984Z,98733.81
2023-11-02T00:56:07.416Z,98714.56
2023-11-02T00:58:36.180Z,98706.59
2023-11-02T01:01:11.164Z,98707.44
2023-11-02T01:03:40.369Z,98704.97
2023-11-02T01:06:17.389Z,98699.47
2023-11-02T01:08:45.335Z,98696.16
2023-11-02T01:11:13.378Z,98690.84
2023-11-02T01:13:41.935Z,98679.41
2023-11-02T01:16:12.813Z,98672.44
2023-11-02T01:18:45.554Z,98674.25
2023-11-02T01:21:16.166Z,98668.13
2023-11-02T01:23:44.015Z,98668.13
2023-11-02T01:26:51.920Z,98664.47
2023-11-02T01:29:19.673Z,98658.69
2023-11-02T01:31:48.899Z,98656.25
2023-11-02T01:34:21.753Z,98655.41
2023-11-02T01:36:49.717Z,98638.00
2023-11-02T01:39:47.526Z,98635.16
2023-11-02T01:42:21.290Z,98621.88
2023-11-02T01:44:56.063Z,98618.22
2023-11-02T01:47:40.489Z,98615.56
2023-11-02T01:50:14.652Z,98606.78
2023-11-02T01:53:03.995Z,98595.97
2023-11-02T01:55:49.328Z,98595.78
2023-11-02T01:58:30.888Z,98591.47
2023-11-02T02:01:06.435Z,98579.00
2023-11-02T02:03:45.596Z,98569.00
2023-11-02T02:06:21.255Z,98562.06
2023-11-02T02:08:56.970Z,98555.56
2023-11-02T02:11:36.719Z,98547.41
2023-11-02T02:14:15.574Z,98533.72
2023-11-02T02:16:47.518Z,98536.38
2023-11-02T02:19:40.791Z,98522.94
2023-11-02T02:22:12.753Z,98507.00
2023-11-02T02:24:50.397Z,98497.19
2023-11-02T02:27:43.855Z,98487.38
2023-11-02T02:30:49.774Z,98482.25
2023-11-02T02:33:47.340Z,98476.09
2023-11-02T02:36:20.876Z,98461.19
2023-11-02T02:38:52.941Z,98441.78
2023-11-02T02:41:24.503Z,98435.63
2023-11-02T02:43:54.301Z,98417.03
2023-11-02T02:46:24.925Z,98424.00
2023-11-02T02:48:52.718Z,98404.56
2023-11-02T02:51:24.061Z,98398.44
2023-11-02T02:53:52.729Z,98376.19
2023-11-02T02:56:25.278Z,98362.06
2023-11-02T02:58:58.330Z,98360.25
2023-11-02T03:01:30.822Z,98348.59
2023-11-02T03:04:00.064Z,98339.44
2023-11-02T03:06:30.724Z,98328.81
2023-11-02T03:09:01.173Z,98324.94
2023-11-02T03:11:31.493Z,98323.09
2023-11-02T03:14:02.062Z,98308.63
2023-11-02T03:16:35.940Z,98307.41
2023-11-02T03:19:06.738Z,98300.91
2023-11-02T03:21:36.119Z,98295.38
2023-11-02T03:24:11.592Z,98312.78
2023-11-02T03:26:49.381Z,98312.84
2023-11-02T03:29:27.749Z,98305.50
2023-11-02T03:32:09.549Z,98295.94
2023-11-02T03:34:46.968Z,98279.78
2023-11-02T03:37:25.628Z,98275.91
2023-11-02T03:40:14.444Z,98249.56
2023-11-02T03:42:50.587Z,98248.97
2023-11-02T03:45:32.220Z,98257.41
2023-11-02T03:48:11.374Z,98248.19
2023-11-02T03:50:53.101Z,98234.91
2023-11-02T03:53:30.893Z,98198.34
2023-11-02T03:56:12.951Z,98186.47
2023-11-02T03:58:48.326Z,98192.22
2023-11-02T04:01:20.424Z,98171.56
2023-11-02T04:03:52.496Z,98156.63
2023-11-02T04:06:23.387Z,98143.34
2023-11-02T04:08:55.774Z,98140.25
2023-11-02T04:11:30.265Z,98122.88
2023-11-02T04:14:13.255Z,98104.28
2023-11-02T04:16:41.091Z,98092.41
2023-11-02T04:19:09.344Z,98095.25
2023-11-02T04:21:37.320Z,98084.63
2023-11-02T04:24:06.857Z,98076.25
2023-11-02T04:26:35.411Z,98074.81
2023-11-02T04:29:03.117Z,98077.69
2023-11-02T04:31:30.762Z,98068.03
2023-11-02T04:33:58.421Z,98061.50
2023-11-02T04:36:26.236Z,98049.41
2023-11-02T04:38:54.271Z,98044.50
2023-11-02T04:41:23.269Z,98034.47
2023-11-02T04:43:50.959Z,98039.38
2023-11-02T04:46:18.652Z,98042.03
2023-11-02T04:48:46.361Z,98038.34
2023-11-02T04:51:14.074Z,98018.09
2023-11-02T04:53:41.857Z,98007.22
2023-11-02T04:56:10.220Z,97992.47
2023-11-02T04:58:39.236Z,97985.72
2023-11-02T05:01:07.609Z,97956.81
2023-11-02T05:03:35.298Z,97949.44
2023-11-02T05:06:03.044Z,97937.75
2023-11-02T05:08:31.003Z,97933.63
2023-11-02T05:10:58.768Z,97910.50
2023-11-02T05:13:26.478Z,97892.47
2023-11-02T05:15:59.331Z,97885.47
2023-11-02T05:18:27.024Z,97858.03
2023-11-02T05:20:58.942Z,97840.56
2023-11-02T05:23:27.106Z,97812.50
2023-11-02T05:25:54.914Z,97782.59
2023-11-02T05:28:22.983Z,97740.59
2023-11-02T05:30:50.582Z,97689.56
2023-11-02T05:33:19.723Z,97703.09
2023-11-02T05:35:47.400Z,97701.69
2023-11-02T05:38:15.109Z,97702.94
2023-11-02T05:40:44.843Z,97691.84
2023-11-02T05:43:12.572Z,97706.41
2023-11-02T05:45:40.483Z,97711.53
2023-11-02T05:48:08.275Z,97697.63
2023-11-02T05:50:39.770Z,97703.53
2023-11-02T05:53:07.572Z,97688.88
2023-11-02T05:55:35.180Z,97668.84
2023-11-02T05:58:02.811Z,97673.31
2023-11-02T06:00:30.677Z,97661.22
2023-11-02T06:02:58.441Z,97643.59
2023-11-02T06:05:26.560Z,97638.69
2023-11-02T06:07:55.527Z,97632.94
2023-11-02T06:10:23.153Z,97627.38
2023-11-02T06:12:50.851Z,97635.63
2023-11-02T06:15:19.180Z,97612.59
2023-11-02T06:17:46.948Z,97565.09
2023-11-02T06:20:14.954Z,97520.38
2023-11-02T06:22:42.661Z,97518.91
2023-11-02T06:25:12.208Z,97539.63
2023-11-02T06:27:39.866Z,97542.31
2023-11-02T06:30:09.567Z,97550.88
2023-11-02T06:32:37.663Z,97523.19
2023-11-02T06:35:05.850Z,97507.44
2023-11-02T06:37:33.666Z,97484.75
2023-11-02T06:40:01.877Z,97476.50
2023-11-02T06:42:30.894Z,97502.91
2023-11-02T06:44:58.495Z,97495.41
2023-11-02T06:47:26.143Z,97505.00
2023-11-02T06:49:54.374Z,97513.19
2023-11-02T06:52:22.185Z,97523.84
2023-11-02T06:54:50.201Z,97545.16
2023-11-02T06:57:17.867Z,97580.84
2023-11-02T06:59:47.009Z,97616.28
2023-11-02T07:02:14.695Z,97611.75
2023-11-02T07:04:42.545Z,97615.28
2023-11-02T07:07:10.450Z,97589.88
2023-11-02T07:09:38.190Z,97622.66
2023-11-02T07:12:06.512Z,97613.63
2023-11-02T07:14:34.242Z,97608.28
2023-11-02T07:17:03.598Z,97600.53
2023-11-02T07:19:31.265Z,97591.28
2023-11-02T07:21:59.424Z,97600.69
2023-11-02T07:24:27.432Z,97594.47
2023-11-02T07:26:55.234Z,97584.84
2023-11-02T07:29:22.848Z,97599.56
2023-11-02T07:31:50.528Z,97598.53
2023-11-02T07:34:19.897Z,97603.41
2023-11-02T07:36:47.581Z,97624.72
2023-11-02T07:39:16.682Z,97595.66
2023-11-02T07:41:44.387Z,97601.72
2023-11-02T07:44:12.052Z,97598.16
2023-11-02T07:46:39.698Z,97592.34
2023-11-02T07:49:07.600Z,97584.16
2023-11-02T07:51:36.714Z,97580.81
2023-11-02T07:54:04.647Z,97566.00
2023-11-02T07:56:32.253Z,97567.19
2023-11-02T07:59:00.027Z,97562.19
2023-11-02T08:01:29.098Z,97543.91
2023-11-02T08:03:57.015Z,97545.91
2023-11-02T08:06:25.607Z,97538.47
2023-11-02T08:08:54.767Z,97516.34
2023-11-02T08:11:22.501Z,97520.19
2023-11-02T08:13:51.947Z,97511.56
2023-11-02T08:16:22.239Z,97533.16
2023-11-02T08:18:50.148Z,97520.28
2023-11-02T08:21:17.935Z,97529.44
2023-11-02T08:23:45.604Z,97528.38
2023-11-02T08:26:14.675Z,97519.50
2023-11-02T08:28:42.490Z,97521.47
2023-11-02T08:31:10.475Z,97503.03
2023-11-02T08:33:38.645Z,97506.66
2023-11-02T08:36:07.530Z,97497.25
2023-11-02T08:38:35.161Z,97484.50
2023-11-02T08:41:03.155Z,97478.00
2023-11-02T08:43:33.885Z,97476.38
2023-11-02T08:46:01.534Z,97476.03
2023-11-02T08:48:30.241Z,97476.38
2023-11-02T08:50:57.998Z,97489.97
2023-11-02T08:53:25.642Z,97472.34
2023-11-02T08:55:53.462Z,97462.25
2023-11-02T08:58:21.381Z,97450.53
2023-11-02T09:00:50.369Z,97451.69
2023-11-02T09:03:18.000Z,97449.72
2023-11-02T09:05:45.971Z,97439.41
2023-11-02T09:08:13.722Z,97443.34
2023-11-02T09:10:41.379Z,97438.00
2023-11-02T09:13:09.017Z,97430.91
2023-11-02T09:15:37.843Z,97421.53
2023-11-02T09:18:07.052Z,97428.50
2023-11-02T09:20:35.182Z,97427.91
2023-11-02T09:23:03.027Z,97406.59
2023-11-02T09:25:30.725Z,97409.94
2023-11-02T09:27:58.960Z,97408.41
2023-11-02T09:30:26.734Z,97393.47
2023-11-02T09:32:54.514Z,97369.81
2023-11-02T09:35:23.606Z,97385.00
2023-11-02T09:37:51.280Z,97381.88
2023-11-02T09:40:19.146Z,97388.13
2023-11-02T09:42:46.990Z,97380.38
2023-11-02T09:45:15.636Z,97365.53
2023-11-02T09:47:43.702Z,97368.66
2023-11-02T09:50:12.251Z,97355.88
2023-11-02T09:52:41.648Z,97367.72
2023-11-02T09:55:12.502Z,97363.28
2023-11-02T09:57:40.789Z,97370.84
2023-11-02T10:00:10.138Z,97365.84
2023-11-02T10:02:41.861Z,97348.56
2023-11-02T10:05:11.423Z,97375.91
2023-11-02T10:07:39.187Z,97362.56
2023-11-02T10:10:10.639Z,97365.56
2023-11-02T10:12:39.301Z,97368.59
2023-11-02T10:15:08.919Z,97337.50
2023-11-02T10:17:37.312Z,97344.81
2023-11-02T10:20:12.537Z,97345.38
2023-11-02T10:22:40.680Z,97352.56
2023-11-02T10:25:13.603Z,97359.19
2023-11-02T10:27:42.856Z,97356.16
2023-11-02T10:30:12.064Z,97361.03
2023-11-02T10:32:40.025Z,97349.16
2023-11-02T10:35:09.273Z,97333.44
2023-11-02T10:37:38.755Z,97329.16
2023-11-02T10:40:07.869Z,97324.16
2023-11-02T10:42:39.701Z,97314.06
2023-11-02T10:45:11.773Z,97339.25
2023-11-02T10:47:41.764Z,97314.72
2023-11-02T10:50:12.899Z,97325.19
2023-11-02T10:52:46.327Z,97303.91
2023-11-02T10:55:24.028Z,97306.06
2023-11-02T10:57:54.976Z,97287.03
2023-11-02T11:00:24.600Z,97289.25
2023-11-02T11:02:52.862Z,97280.97
2023-11-02T11:05:21.459Z,97276.69
2023-11-02T11:07:54.063Z,97272.72
2023-11-02T11:10:22.077Z,97288.53
2023-11-02T11:12:52.610Z,97292.81
2023-11-02T11:15:24.304Z,97294.19
2023-11-02T11:17:56.600Z,97271.63
2023-11-02T11:20:25.131Z,97260.44
2023-11-02T11:22:54.344Z,97256.13
2023-11-02T11:25:22.244Z,97251.59
2023-11-02T11:27:50.932Z,97242.84
2023-11-02T11:30:39.240Z,97243.25
2023-11-02T11:33:49.311Z,97241.38
2023-11-02T11:36:22.042Z,97248.03
2023-11-02T11:38:49.821Z,97224.53
2023-11-02T11:41:43.540Z,97230.53
2023-11-02T11:44:19.098Z,97229.88
2023-11-02T11:46:53.961Z,97213.75
2023-11-02T11:49:48.579Z,97210.59
2023-11-02T11:52:29.157Z,97220.31
2023-11-02T11:54:57.011Z,97236.59
2023-11-02T11:57:55.153Z,97223.25
2023-11-02T12:00:25.234Z,97238.53
2023-11-02T12:02:58.958Z,97211.06
2023-11-02T12:05:53.131Z,97221.25
2023-11-02T12:08:22.946Z,97218.63
2023-11-02T12:10:53.536Z,97216.72
2023-11-02T12:13:21.907Z,97222.53
2023-11-02T12:15:55.521Z,97211.59
2023-11-02T12:18:31.910Z,97211.41
2023-11-02T12:21:01.256Z,97216.00
2023-11-02T12:23:33.145Z,97213.41
2023-11-02T12:26:01.257Z,97213.16
2023-11-02T12:28:28.909Z,97197.84
2023-11-02T12:30:56.525Z,97213.97
2023-11-02T12:33:25.534Z,97208.88
2023-11-02T12:35:56.804Z,97224.44
2023-11-02T12:38:45.774Z,97220.13
2023-11-02T12:41:15.371Z,97234.06
2023-11-02T12:43:44.582Z,97234.06
2023-11-02T12:46:12.241Z,97234.88
2023-11-02T12:48:43.444Z,97227.91
2023-11-02T12:51:16.105Z,97219.88
2023-11-02T12:53:44.870Z,97207.31
2023-11-02T12:56:14.048Z,97218.28
2023-11-02T12:58:43.715Z,97205.38
2023-11-02T13:01:12.246Z,97211.28
2023-11-02T13:03:59.911Z,97189.59
2023-11-02T13:06:28.068Z,97188.47
2023-11-02T13:09:08.224Z,97201.84
2023-11-02T13:11:35.973Z,97194.69
2023-11-02T13:14:03.662Z,97197.91
2023-11-02T13:16:31.340Z,97192.31
2023-11-02T13:19:00.519Z,97186.47
2023-11-02T13:21:28.521Z,97201.78
2023-11-02T13:23:56.419Z,97201.50
2023-11-02T13:26:24.846Z,97189.47
2023-11-02T13:28:53.187Z,97184.66
2023-11-02T13:31:21.970Z,97188.75
2023-11-02T13:33:50.468Z,97186.31
2023-11-02T13:36:19.676Z,97170.28
2023-11-02T13:38:48.768Z,97177.50
2023-11-02T13:41:16.774Z,97177.22
2023-11-02T13:43:44.388Z,97177.50
2023-11-02T13:46:12.810Z,97178.84
2023-11-02T13:48:40.577Z,97179.16
2023-11-02T13:51:08.438Z,97190.38
2023-11-02T13:53:37.614Z,97195.16
2023-11-02T13:56:10.685Z,97193.00
2023-11-02T13:58:39.321Z,97192.69
2023-11-02T14:01:07.246Z,97196.34
2023-11-02T14:03:35.734Z,97209.47
2023-11-02T14:06:05.060Z,97188.84
2023-11-02T14:08:33.481Z,97165.56
2023-11-02T14:11:06.537Z,97164.19
2023-11-02T14:13:34.464Z,97170.78
2023-11-02T14:16:02.899Z,97181.97
2023-11-02T14:18:32.337Z,97171.25
2023-11-02T14:21:00.143Z,97177.69
2023-11-02T14:23:27.999Z,97173.09
2023-11-02T14:25:56.545Z,97187.28
2023-11-02T14:28:25.676Z,97177.06
2023-11-02T14:30:53.425Z,97176.81
2023-11-02T14:33:21.097Z,97177.06
2023-11-02T14:35:48.806Z,97166.63
2023-11-02T14:38:20.228Z,97171.38
2023-11-02T14:40:48.154Z,97168.66
2023-11-02T14:43:17.030Z,97166.72
2023-11-02T14:45:46.364Z,97145.25
2023-11-02T14:48:15.307Z,97149.00
2023-11-02T14:50:42.999Z,97161.78
2023-11-02T14:53:11.193Z,97175.91
2023-11-02T14:55:39.289Z,97167.81
2023-11-02T14:58:07.252Z,97179.59
2023-11-02T15:00:34.977Z,97182.41
2023-11-02T15:03:04.197Z,97178.03
2023-11-02T15:05:31.846Z,97188.19
2023-11-02T15:07:59.611Z,97195.88
2023-11-02T15:10:27.522Z,97178.41
2023-11-02T15:12:55.232Z,97192.81
2023-11-02T15:15:22.983Z,97196.00
2023-11-02T15:17:50.708Z,97198.06
2023-11-02T15:20:22.073Z,97177.44
2023-11-02T15:22:53.432Z,97175.25
2023-11-02T15:25:21.364Z,97192.25
2023-11-02T15:27:49.334Z,97201.34
2023-11-02T15:30:18.850Z,97197.28
2023-11-02T15:32:46.747Z,97198.25
2023-11-02T15:35:15.134Z,97201.16
2023-11-02T15:37:44.949Z,97211.75
2023-11-02T15:40:13.686Z,97210.94
2023-11-02T15:42:41.454Z,97216.44
2023-11-02T15:45:11.237Z,97204.72
2023-11-02T15:47:39.051Z,97206.75
2023-11-02T15:50:09.527Z,97198.97
2023-11-02T15:52:42.508Z,97215.31
2023-11-02T15:55:12.141Z,97212.78
2023-11-02T15:57:43.643Z,97211.50
2023-11-02T16:00:13.230Z,97203.88
2023-11-02T16:02:41.447Z,97185.28
2023-11-02T16:05:10.538Z,97217.78
2023-11-02T16:07:38.425Z,97226.28
2023-11-02T16:10:06.927Z,97222.97
2023-11-02T16:12:36.008Z,97231.44
2023-11-02T16:15:06.062Z,97237.38
2023-11-02T16:17:33.802Z,97254.06
2023-11-02T16:20:02.336Z,97251.63
2023-11-02T16:22:30.462Z,97257.44
2023-11-02T16:24:58.166Z,97243.38
2023-11-02T16:27:25.959Z,97246.31
2023-11-02T16:29:55.402Z,97250.59
2023-11-02T16:32:23.109Z,97250.00
2023-11-02T16:35:02.246Z,97249.53
2023-11-02T16:37:35.695Z,97256.63
2023-11-02T16:40:07.309Z,97248.28
2023-11-02T16:42:37.869Z,97256.06
2023-11-02T16:45:07.629Z,97253.63
2023-11-02T16:47:35.930Z,97250.03
2023-11-02T16:50:05.002Z,97243.91
2023-11-02T16:52:32.614Z,97239.59
2023-11-02T16:55:00.371Z,97245.44
2023-11-02T16:57:28.107Z,97241.47
2023-11-02T16:59:55.798Z,97237.66
2023-11-02T17:02:24.764Z,97232.91
2023-11-02T17:04:52.428Z,97238.69
2023-11-02T17:07:20.185Z,97240.47
2023-11-02T17:09:47.892Z,97235.38
2023-11-02T17:12:15.693Z,97217.16
2023-11-02T17:14:43.441Z,97223.22
2023-11-02T17:17:11.119Z,97225.53
2023-11-02T17:19:40.151Z,97232.97
2023-11-02T17:22:08.126Z,97229.72
2023-11-02T17:24:38.168Z,97229.97
2023-11-02T17:27:06.048Z,97244.91
2023-11-02T17:29:34.020Z,97251.78
2023-11-02T17:32:01.959Z,97249.13
2023-11-02T17:34:29.829Z,97254.44
2023-11-02T17:36:58.970Z,97266.13
2023-11-02T17:39:27.636Z,97268.81
2023-11-02T17:41:55.473Z,97271.97
2023-11-02T17:44:23.106Z,97281.47
2023-11-02T17:46:50.776Z,97279.97
2023-11-02T17:49:18.616Z,97280.41
2023-11-02T17:51:46.410Z,97288.66
2023-11-02T17:54:15.663Z,97284.72
2023-11-02T17:56:44.021Z,97304.53
2023-11-02T17:59:11.849Z,97290.63
2023-11-02T18:01:40.157Z,97290.06
2023-11-02T18:04:08.408Z,97290.06
2023-11-02T18:06:36.145Z,97298.97
2023-11-02T18:09:03.877Z,97304.78
2023-11-02T18:11:32.825Z,97309.19
2023-11-02T18:14:00.527Z,97303.53
2023-11-02T18:16:28.177Z,97310.09
2023-11-02T18:18:55.929Z,97313.00
2023-11-02T18:21:23.561Z,97305.25
2023-11-02T18:23:51.244Z,97316.94
2023-11-02T18:26:18.849Z,97313.25
2023-11-02T18:28:47.833Z,97315.31
2023-11-02T18:31:18.904Z,97321.13
2023-11-02T18:33:46.995Z,97327.16
2023-11-02T18:36:14.746Z,97311.53
2023-11-02T18:38:42.362Z,97298.41
2023-11-02T18:41:09.978Z,97306.19
2023-11-02T18:43:38.789Z,97310.13
2023-11-02T18:46:17.690Z,97308.94
2023-11-02T18:48:46.038Z,97313.69
2023-11-02T18:51:13.712Z,97310.47
2023-11-02T18:53:41.365Z,97307.00
2023-11-02T18:56:12.054Z,97305.81
2023-11-02T18:58:40.294Z,97301.06
2023-11-02T19:01:09.490Z,97302.34
2023-11-02T19:03:37.187Z,97301.19
2023-11-02T19:06:05.391Z,97294.47
2023-11-02T19:08:33.475Z,97297.13
2023-11-02T19:11:05.506Z,97289.47
2023-11-02T19:13:33.485Z,97293.78
2023-11-02T19:16:06.465Z,97298.25
2023-11-02T19:18:35.924Z,97291.31
2023-11-02T19:21:03.788Z,97299.09
2023-11-02T19:23:31.479Z,97292.13
2023-11-02T19:26:01.447Z,97292.59
2023-11-02T19:28:29.284Z,97285.66
2023-11-02T19:30:56.919Z,97285.88
2023-11-02T19:33:24.646Z,97290.97
2023-11-02T19:35:54.010Z,97279.53
2023-11-02T19:38:22.104Z,97275.44
2023-11-02T19:40:49.817Z,97268.88
2023-11-02T19:43:22.783Z,97276.03
2023-11-02T19:45:51.738Z,97270.94
2023-11-02T19:48:20.608Z,97277.66
2023-11-02T19:50:48.999Z,97274.75
2023-11-02T19:53:18.041Z,97271.88
2023-11-02T19:55:45.709Z,97272.09
2023-11-02T19:58:13.642Z,97272.09
2023-11-02T20:00:41.678Z,97274.53
2023-11-02T20:03:10.880Z,97280.09
2023-11-02T20:05:39.945Z,97274.53
2023-11-02T20:08:07.640Z,97264.34
2023-11-02T20:10:36.587Z,97264.47
2023-11-02T20:13:04.679Z,97273.28
2023-11-02T20:15:32.312Z,97277.44
2023-11-02T20:18:00.021Z,97263.75
2023-11-02T20:20:27.735Z,97288.53
2023-11-02T20:22:56.424Z,97283.91
2023-11-02T20:25:24.185Z,97287.50
2023-11-02T20:27:53.259Z,97291.44
2023-11-02T20:30:20.931Z,97298.16
2023-11-02T20:32:48.636Z,97306.03
2023-11-02T20:35:16.404Z,97314.16
2023-11-02T20:37:44.434Z,97303.50
2023-11-02T20:40:13.437Z,97311.69
2023-11-02T20:42:42.580Z,97314.59
2023-11-02T20:45:16.071Z,97322.81
2023-11-02T20:47:44.373Z,97316.09
2023-11-02T20:50:12.248Z,97332.00
2023-11-02T20:52:40.673Z,97322.25
2023-11-02T20:55:09.028Z,97314.13
2023-11-02T20:57:37.383Z,97313.78
2023-11-02T21:00:05.799Z,97312.72
2023-11-02T21:02:34.887Z,97325.47
2023-11-02T21:05:02.483Z,97322.19
2023-11-02T21:07:30.714Z,97315.44
2023-11-02T21:09:58.401Z,97310.59
2023-11-02T21:12:26.210Z,97315.94
2023-11-02T21:14:53.857Z,97316.84
2023-11-02T21:17:21.884Z,97304.53
2023-11-02T21:19:51.497Z,97329.53
2023-11-02T21:22:19.170Z,97322.59
2023-11-02T21:24:49.143Z,97309.53
2023-11-02T21:27:16.912Z,97317.03
2023-11-02T21:29:44.636Z,97314.06
2023-11-02T21:32:12.586Z,97315.13
2023-11-02T21:34:42.888Z,97321.25
2023-11-02T21:37:12.786Z,97319.41
2023-11-02T21:39:41.444Z,97319.53
2023-11-02T21:42:09.266Z,97319.22
2023-11-02T21:44:37.497Z,97324.44
2023-11-02T21:47:05.415Z,97323.63
2023-11-02T21:49:33.518Z,97322.25
2023-11-02T21:52:01.576Z,97328.97
2023-11-02T21:54:30.839Z,97342.28
2023-11-02T21:56:58.450Z,97335.47
2023-11-02T21:59:26.070Z,97342.03
2023-11-02T22:01:53.695Z,97348.53
2023-11-02T22:04:21.781Z,97346.56
2023-11-02T22:06:49.516Z,97348.78
2023-11-02T22:09:17.405Z,97362.44
2023-11-02T22:11:46.618Z,97350.63
2023-11-02T22:14:14.284Z,97363.03
2023-11-02T22:16:41.908Z,97374.94
2023-11-02T22:19:09.582Z,97355.72
2023-11-02T22:21:37.670Z,97361.28
2023-11-02T22:24:06.010Z,97364.16
2023-11-02T22:26:33.721Z,97361.88
2023-11-02T22:29:02.818Z,97352.69
2023-11-02T22:31:30.983Z,97356.16
2023-11-02T22:33:58.952Z,97355.59
2023-11-02T22:36:26.713Z,97349.09
2023-11-02T22:38:58.838Z,97353.03
2023-11-02T22:41:27.510Z,97362.88
2023-11-02T22:43:55.171Z,97355.94
2023-11-02T22:46:24.274Z,97377.28
2023-11-02T22:48:52.014Z,97364.88
2023-11-02T22:51:19.788Z,97347.94
2023-11-02T22:53:47.412Z,97341.56
2023-11-02T22:56:17.726Z,97340.00
2023-11-02T22:58:45.652Z,97332.78
2023-11-02T23:01:17.284Z,97339.47
2023-11-02T23:03:49.356Z,97343.59
2023-11-02T23:06:17.530Z,97337.78
2023-11-02T23:08:45.194Z,97353.59
2023-11-02T23:11:13.373Z,97347.47
2023-11-02T23:13:41.486Z,97345.94
2023-11-02T23:16:10.120Z,97347.19
2023-11-02T23:18:38.192Z,97349.09
2023-11-02T23:21:09.522Z,97342.59
2023-11-02T23:23:37.228Z,97353.47
2023-11-02T23:26:06.459Z,97348.16
2023-11-02T23:28:34.768Z,97358.84
2023-11-02T23:31:02.671Z,97347.63
2023-11-02T23:33:30.504Z,97359.75
2023-11-02T23:35:58.262Z,97352.41
2023-11-02T23:38:27.336Z,97362.00
2023-11-02T23:40:55.486Z,97368.59
2023-11-02T23:43:24.511Z,97357.56
2023-11-02T23:45:52.350Z,97361.50
2023-11-02T23:48:20.202Z,97355.38
2023-11-02T23:50:47.855Z,97362.72
2023-11-02T23:53:15.674Z,97354.59
2023-11-02T23:55:44.670Z,97368.13
2023-11-02T23:58:12.432Z,97360.16
